createdAt,value
2023-05-10T00:00:19.841Z,37.90
2023-05-10T00:02:49.862Z,37.98
2023-05-10T00:05:20.327Z,37.98
2023-05-10T00:07:48.952Z,37.82
2023-05-10T00:10:17.734Z,37.83
2023-05-10T00:12:46.516Z,37.65
2023-05-10T00:15:15.396Z,37.47
2023-05-10T00:17:44.082Z,37.36
2023-05-10T00:20:13.129Z,37.46
2023-05-10T00:22:43.305Z,37.52
2023-05-10T00:25:13.401Z,37.22
2023-05-10T00:27:42.100Z,37.08
2023-05-10T00:30:11.408Z,37.19
2023-05-10T00:32:41.344Z,37.10
2023-05-10T00:35:10.419Z,36.98
2023-05-10T00:37:41.358Z,36.97
2023-05-10T00:40:11.680Z,37.08
2023-05-10T00:42:45.203Z,37.30
2023-05-10T00:45:14.920Z,37.48
2023-05-10T00:47:43.799Z,37.54
2023-05-10T00:50:15.095Z,37.65
2023-05-10T00:52:44.084Z,37.42
2023-05-10T00:55:13.250Z,37.51
2023-05-10T00:57:41.957Z,37.55
2023-05-10T01:00:12.412Z,37.57
2023-05-10T01:02:43.379Z,37.98
2023-05-10T01:05:13.390Z,37.88
2023-05-10T01:07:42.376Z,38.07
2023-05-10T01:10:12.266Z,38.04
2023-05-10T01:12:42.643Z,37.93
2023-05-10T01:15:11.697Z,37.98
2023-05-10T01:17:41.932Z,37.91
2023-05-10T01:20:11.490Z,38.09
2023-05-10T01:23:31.750Z,37.91
2023-05-10T01:26:27.839Z,37.73
2023-05-10T01:29:21.906Z,37.71
2023-05-10T01:32:17.524Z,37.98
2023-05-10T01:35:03.617Z,38.30
2023-05-10T01:37:49.585Z,38.20
2023-05-10T01:40:26.485Z,38.21
2023-05-10T01:43:02.548Z,38.29
2023-05-10T01:45:42.444Z,38.36
2023-05-10T01:48:12.134Z,38.20
2023-05-10T01:50:44.328Z,38.40
2023-05-10T01:53:13.686Z,38.44
2023-05-10T01:55:53.189Z,38.31
2023-05-10T01:58:31.552Z,38.38
2023-05-10T02:01:03.013Z,38.40
2023-05-10T02:03:31.983Z,38.59
2023-05-10T02:06:00.926Z,38.74
2023-05-10T02:08:30.439Z,38.83
2023-05-10T02:10:59.493Z,39.13
2023-05-10T02:13:30.189Z,39.23
2023-05-10T02:15:58.953Z,39.38
2023-05-10T02:18:28.310Z,39.64
2023-05-10T02:20:58.345Z,39.72
2023-05-10T02:23:27.261Z,39.98
2023-05-10T02:25:55.843Z,40.02
2023-05-10T02:28:25.093Z,40.23
2023-05-10T02:30:53.709Z,40.48
2023-05-10T02:33:23.039Z,40.54
2023-05-10T02:35:52.583Z,40.71
2023-05-10T02:38:23.006Z,40.85
2023-05-10T02:40:52.493Z,41.06
2023-05-10T02:43:21.248Z,41.14
2023-05-10T02:45:50.279Z,41.37
2023-05-10T02:48:20.143Z,41.04
2023-05-10T02:50:52.095Z,40.92
2023-05-10T02:53:24.517Z,41.09
2023-05-10T02:55:53.677Z,41.00
2023-05-10T02:58:22.372Z,40.89
2023-05-10T03:00:51.136Z,41.01
2023-05-10T03:03:21.878Z,40.95
2023-05-10T03:05:55.005Z,40.80
2023-05-10T03:08:24.372Z,41.02
2023-05-10T03:11:27.217Z,41.71
2023-05-10T03:14:15.238Z,42.10
2023-05-10T03:16:50.475Z,41.97
2023-05-10T03:19:52.427Z,41.86
2023-05-10T03:22:27.727Z,41.92
2023-05-10T03:24:58.313Z,42.00
2023-05-10T03:27:28.225Z,41.84
2023-05-10T03:29:57.388Z,42.29
2023-05-10T03:32:28.280Z,42.94
2023-05-10T03:34:57.762Z,42.78
2023-05-10T03:37:27.230Z,43.01
2023-05-10T03:39:56.120Z,43.19
2023-05-10T03:42:25.557Z,43.08
2023-05-10T03:44:54.959Z,42.66
2023-05-10T03:47:23.688Z,42.57
2023-05-10T03:49:52.603Z,42.27
2023-05-10T03:52:21.396Z,41.97
2023-05-10T03:54:50.378Z,42.18
2023-05-10T03:57:18.951Z,42.83
2023-05-10T03:59:47.566Z,43.22
2023-05-10T04:02:16.426Z,43.13
2023-05-10T04:04:45.291Z,43.18
2023-05-10T04:07:14.127Z,43.56
2023-05-10T04:09:42.950Z,43.67
2023-05-10T04:12:12.820Z,43.69
2023-05-10T04:14:41.797Z,43.74
2023-05-10T04:17:10.985Z,43.46
2023-05-10T04:19:40.210Z,43.12
2023-05-10T04:22:10.950Z,42.99
2023-05-10T04:24:40.225Z,42.29
2023-05-10T04:27:10.713Z,41.70
2023-05-10T04:29:40.129Z,41.81
2023-05-10T04:32:11.923Z,41.87
2023-05-10T04:34:41.732Z,41.87
2023-05-10T04:37:11.723Z,41.28
2023-05-10T04:39:42.293Z,40.94
2023-05-10T04:42:12.479Z,41.10
2023-05-10T04:44:41.636Z,40.87
2023-05-10T04:47:12.014Z,40.78
2023-05-10T04:49:41.423Z,40.93
2023-05-10T04:52:10.146Z,41.13
2023-05-10T04:54:39.648Z,41.09
2023-05-10T04:57:09.413Z,41.19
2023-05-10T04:59:38.418Z,41.11
2023-05-10T05:02:09.170Z,41.34
2023-05-10T05:04:39.043Z,41.17
2023-05-10T05:07:08.034Z,41.20
2023-05-10T05:09:37.155Z,41.33
2023-05-10T05:12:06.671Z,41.26
2023-05-10T05:14:35.520Z,41.13
2023-05-10T05:17:04.519Z,40.97
2023-05-10T05:19:33.587Z,40.86
2023-05-10T05:22:02.495Z,40.91
2023-05-10T05:24:35.256Z,41.08
2023-05-10T05:27:04.494Z,41.25
2023-05-10T05:29:33.883Z,41.23
2023-05-10T05:32:02.564Z,41.08
2023-05-10T05:34:31.373Z,40.39
2023-05-10T05:37:00.403Z,39.89
2023-05-10T05:39:28.986Z,39.40
2023-05-10T05:41:57.634Z,39.35
2023-05-10T05:44:28.610Z,39.62
2023-05-10T05:46:57.508Z,40.32
2023-05-10T05:49:28.192Z,40.33
2023-05-10T05:52:03.511Z,40.24
2023-05-10T05:54:32.298Z,40.01
2023-05-10T05:57:02.133Z,40.05
2023-05-10T05:59:30.856Z,40.09
2023-05-10T06:02:00.048Z,40.20
2023-05-10T06:04:29.361Z,40.07
2023-05-10T06:06:59.429Z,40.39
2023-05-10T06:09:28.193Z,40.41
2023-05-10T06:11:57.897Z,40.67
2023-05-10T06:14:26.668Z,40.89
2023-05-10T06:16:56.631Z,40.89
2023-05-10T06:19:27.284Z,41.64
2023-05-10T06:21:56.136Z,41.69
2023-05-10T06:24:24.864Z,41.65
2023-05-10T06:26:53.390Z,41.37
2023-05-10T06:29:22.841Z,40.89
2023-05-10T06:31:52.013Z,40.20
2023-05-10T06:34:21.333Z,39.25
2023-05-10T06:36:50.087Z,38.78
2023-05-10T06:39:18.768Z,38.12
2023-05-10T06:41:47.478Z,37.03
2023-05-10T06:44:16.437Z,35.64
2023-05-10T06:46:45.189Z,35.05
2023-05-10T06:49:14.470Z,34.98
2023-05-10T06:51:43.260Z,34.07
2023-05-10T06:54:12.276Z,33.39
2023-05-10T06:56:41.527Z,32.73
2023-05-10T06:59:11.324Z,32.22
2023-05-10T07:01:40.764Z,31.74
2023-05-10T07:04:09.542Z,30.74
2023-05-10T07:06:38.200Z,30.99
2023-05-10T07:09:08.647Z,30.70
2023-05-10T07:11:38.421Z,30.85
2023-05-10T07:14:07.190Z,31.22
2023-05-10T07:16:37.601Z,31.13
2023-05-10T07:19:07.072Z,30.87
2023-05-10T07:21:37.055Z,30.42
2023-05-10T07:24:07.111Z,30.07
2023-05-10T07:26:35.933Z,29.36
2023-05-10T07:29:07.463Z,28.74
2023-05-10T07:31:38.314Z,27.72
2023-05-10T07:34:07.712Z,28.06
2023-05-10T07:36:37.841Z,27.89
2023-05-10T07:39:06.506Z,28.18
2023-05-10T07:41:36.020Z,27.60
2023-05-10T07:44:05.958Z,27.12
2023-05-10T07:46:34.977Z,27.53
2023-05-10T07:49:04.998Z,27.75
2023-05-10T07:51:41.535Z,27.48
2023-05-10T07:54:12.494Z,26.47
2023-05-10T07:56:46.705Z,26.03
2023-05-10T07:59:18.775Z,26.13
2023-05-10T08:01:49.069Z,26.02
2023-05-10T08:04:19.281Z,25.46
2023-05-10T08:06:52.464Z,25.51
2023-05-10T08:09:23.126Z,25.01
2023-05-10T08:11:54.842Z,24.68
2023-05-10T08:14:23.884Z,25.04
2023-05-10T08:16:52.791Z,24.74
2023-05-10T08:19:22.425Z,25.33
2023-05-10T08:21:51.810Z,25.84
2023-05-10T08:24:21.621Z,26.25
2023-05-10T08:26:50.245Z,26.32
2023-05-10T08:29:18.935Z,26.23
2023-05-10T08:31:47.628Z,26.51
2023-05-10T08:34:16.598Z,26.76
2023-05-10T08:36:45.958Z,27.14
2023-05-10T08:39:23.319Z,27.20
2023-05-10T08:41:45.907Z,27.05
2023-05-10T08:44:15.124Z,27.62
2023-05-10T08:46:45.069Z,27.97
2023-05-10T08:49:19.502Z,28.12
2023-05-10T08:51:52.949Z,28.46
2023-05-10T08:54:22.796Z,28.65
2023-05-10T08:56:51.333Z,28.82
2023-05-10T08:59:19.963Z,28.89
2023-05-10T09:01:50.080Z,29.11
2023-05-10T09:04:20.307Z,29.11
2023-05-10T09:06:49.918Z,29.25
2023-05-10T09:09:19.289Z,29.43
2023-05-10T09:11:47.897Z,29.20
2023-05-10T09:14:16.466Z,29.11
2023-05-10T09:16:45.509Z,29.12
2023-05-10T09:19:15.341Z,29.06
2023-05-10T09:21:44.043Z,28.92
2023-05-10T09:24:13.262Z,28.97
2023-05-10T09:26:52.194Z,29.13
2023-05-10T09:29:21.884Z,28.89
2023-05-10T09:31:52.813Z,28.91
2023-05-10T09:34:31.570Z,29.24
2023-05-10T09:37:02.506Z,29.38
2023-05-10T09:39:34.201Z,29.41
2023-05-10T09:42:09.839Z,29.27
2023-05-10T09:44:38.969Z,29.12
2023-05-10T09:47:07.777Z,28.98
2023-05-10T09:49:37.821Z,28.42
2023-05-10T09:52:08.114Z,28.41
2023-05-10T09:54:37.154Z,28.69
2023-05-10T09:57:07.028Z,28.10
2023-05-10T09:59:43.352Z,28.16
2023-05-10T10:02:11.999Z,28.10
2023-05-10T10:04:44.144Z,28.25
2023-05-10T10:07:13.132Z,28.53
2023-05-10T10:09:41.745Z,28.59
2023-05-10T10:12:10.733Z,28.70
2023-05-10T10:14:40.148Z,28.99
2023-05-10T10:17:09.230Z,29.00
2023-05-10T10:19:38.498Z,28.99
2023-05-10T10:22:07.426Z,28.99
2023-05-10T10:24:37.344Z,29.07
2023-05-10T10:27:43.011Z,29.02
2023-05-10T10:30:38.432Z,29.11
2023-05-10T10:33:49.201Z,29.04
2023-05-10T10:36:19.112Z,28.97
2023-05-10T10:39:00.355Z,28.76
2023-05-10T10:41:53.687Z,28.65
2023-05-10T10:44:30.012Z,28.38
2023-05-10T10:47:17.774Z,28.57
2023-05-10T10:50:01.162Z,28.44
2023-05-10T10:52:40.546Z,28.32
2023-05-10T10:55:22.689Z,28.81
2023-05-10T10:57:55.746Z,29.26
2023-05-10T11:00:38.559Z,29.57
2023-05-10T11:03:17.357Z,30.02
2023-05-10T11:05:49.840Z,30.46
2023-05-10T11:08:23.396Z,30.70
2023-05-10T11:10:55.459Z,30.72
2023-05-10T11:13:44.521Z,30.91
2023-05-10T11:16:19.532Z,31.00
2023-05-10T11:19:04.994Z,30.79
2023-05-10T11:21:35.310Z,30.45
2023-05-10T11:24:07.315Z,30.50
2023-05-10T11:26:36.791Z,30.22
2023-05-10T11:29:06.084Z,29.90
2023-05-10T11:31:35.813Z,29.52
2023-05-10T11:34:05.102Z,29.64
2023-05-10T11:36:35.344Z,29.39
2023-05-10T11:39:05.795Z,29.64
2023-05-10T11:41:35.184Z,29.32
2023-05-10T11:44:07.144Z,28.99
2023-05-10T11:46:36.363Z,28.42
2023-05-10T11:49:08.030Z,28.29
2023-05-10T11:51:37.739Z,28.17
2023-05-10T11:54:13.678Z,28.18
2023-05-10T11:56:43.370Z,28.81
2023-05-10T11:59:14.097Z,28.37
2023-05-10T12:01:43.313Z,28.51
2023-05-10T12:04:12.657Z,27.99
2023-05-10T12:06:42.320Z,27.42
2023-05-10T12:09:11.664Z,27.13
2023-05-10T12:11:43.607Z,27.12
2023-05-10T12:14:12.207Z,27.43
2023-05-10T12:16:41.408Z,27.57
2023-05-10T12:19:11.002Z,27.48
2023-05-10T12:21:41.930Z,27.33
2023-05-10T12:24:11.643Z,27.30
2023-05-10T12:26:40.758Z,27.40
2023-05-10T12:29:23.578Z,27.62
2023-05-10T12:31:57.152Z,27.40
2023-05-10T12:34:37.005Z,27.22
2023-05-10T12:37:06.194Z,27.03
2023-05-10T12:39:45.622Z,27.03
2023-05-10T12:42:16.589Z,27.37
2023-05-10T12:44:45.811Z,27.64
2023-05-10T12:47:16.530Z,27.54
2023-05-10T12:49:46.811Z,27.39
2023-05-10T12:52:16.702Z,27.24
2023-05-10T12:54:47.342Z,27.32
2023-05-10T12:57:17.900Z,27.72
2023-05-10T12:59:47.217Z,27.68
2023-05-10T13:02:16.356Z,27.71
2023-05-10T13:04:48.849Z,27.38
2023-05-10T13:07:18.495Z,27.62
2023-05-10T13:09:47.811Z,27.75
2023-05-10T13:12:16.856Z,27.69
2023-05-10T13:14:46.922Z,27.45
2023-05-10T13:17:16.885Z,27.46
2023-05-10T13:19:46.166Z,27.52
2023-05-10T13:22:22.955Z,27.62
2023-05-10T13:24:48.340Z,27.77
2023-05-10T13:27:18.064Z,28.06
2023-05-10T13:29:49.176Z,28.00
2023-05-10T13:32:18.218Z,27.91
2023-05-10T13:34:47.497Z,27.78
2023-05-10T13:37:18.111Z,27.45
2023-05-10T13:39:47.024Z,27.72
2023-05-10T13:42:16.510Z,27.83
2023-05-10T13:44:45.580Z,27.70
2023-05-10T13:47:15.135Z,27.70
2023-05-10T13:49:44.936Z,27.63
2023-05-10T13:52:14.557Z,28.37
2023-05-10T13:54:44.884Z,29.14
2023-05-10T13:57:17.906Z,29.01
2023-05-10T13:59:47.788Z,28.87
2023-05-10T14:02:19.710Z,28.32
2023-05-10T14:04:49.978Z,28.49
2023-05-10T14:07:20.194Z,28.87
2023-05-10T14:09:49.500Z,28.10
2023-05-10T14:12:17.980Z,28.02
2023-05-10T14:14:47.171Z,28.94
2023-05-10T14:17:17.149Z,28.81
2023-05-10T14:19:46.487Z,28.39
2023-05-10T14:22:16.746Z,28.40
2023-05-10T14:24:47.901Z,27.78
2023-05-10T14:27:16.878Z,28.11
2023-05-10T14:29:46.067Z,27.52
2023-05-10T14:32:15.720Z,27.55
2023-05-10T14:34:45.230Z,27.51
2023-05-10T14:37:14.824Z,27.96
2023-05-10T14:39:44.911Z,27.89
2023-05-10T14:42:13.705Z,27.83
2023-05-10T14:44:43.236Z,27.42
2023-05-10T14:47:13.040Z,26.95
2023-05-10T14:49:41.718Z,26.89
2023-05-10T14:52:14.334Z,26.72
2023-05-10T14:54:43.699Z,26.67
2023-05-10T14:57:12.897Z,26.30
2023-05-10T14:59:42.581Z,26.70
2023-05-10T15:02:13.476Z,26.28
2023-05-10T15:04:42.938Z,26.28
2023-05-10T15:07:14.631Z,26.55
2023-05-10T15:09:43.814Z,25.94
2023-05-10T15:12:12.791Z,26.10
2023-05-10T15:14:41.984Z,26.07
2023-05-10T15:17:10.976Z,26.15
2023-05-10T15:19:40.086Z,26.14
2023-05-10T15:22:09.457Z,25.82
2023-05-10T15:24:38.830Z,25.98
2023-05-10T15:27:07.617Z,25.96
2023-05-10T15:29:36.783Z,26.43
2023-05-10T15:32:06.137Z,26.45
2023-05-10T15:34:37.180Z,26.48
2023-05-10T15:37:09.827Z,26.24
2023-05-10T15:39:39.663Z,26.35
2023-05-10T15:42:08.496Z,26.57
2023-05-10T15:44:39.218Z,26.64
2023-05-10T15:47:07.933Z,26.40
2023-05-10T15:49:38.360Z,26.44
2023-05-10T15:52:07.761Z,26.41
2023-05-10T15:54:36.847Z,26.65
2023-05-10T15:57:06.204Z,26.86
2023-05-10T15:59:36.142Z,27.10
2023-05-10T16:02:05.932Z,27.16
2023-05-10T16:04:37.564Z,27.17
2023-05-10T16:07:06.315Z,27.67
2023-05-10T16:09:36.308Z,27.89
2023-05-10T16:12:05.735Z,27.74
2023-05-10T16:14:35.795Z,27.70
2023-05-10T16:17:05.074Z,27.82
2023-05-10T16:19:34.180Z,27.85
2023-05-10T16:22:03.499Z,27.90
2023-05-10T16:24:33.276Z,28.12
2023-05-10T16:27:02.964Z,28.12
2023-05-10T16:29:32.112Z,28.55
2023-05-10T16:32:01.637Z,28.57
2023-05-10T16:34:31.107Z,28.69
2023-05-10T16:37:00.743Z,28.18
2023-05-10T16:39:30.229Z,27.99
2023-05-10T16:41:59.889Z,28.12
2023-05-10T16:44:30.176Z,28.25
2023-05-10T16:46:59.919Z,28.02
2023-05-10T16:49:29.994Z,27.98
2023-05-10T16:52:00.665Z,28.04
2023-05-10T16:54:31.632Z,27.82
2023-05-10T16:57:02.089Z,28.12
2023-05-10T16:59:31.100Z,28.06
2023-05-10T17:02:00.597Z,27.88
2023-05-10T17:04:30.519Z,28.39
2023-05-10T17:07:00.033Z,27.96
2023-05-10T17:09:29.652Z,27.99
2023-05-10T17:11:58.875Z,28.00
2023-05-10T17:14:28.407Z,28.18
2023-05-10T17:16:58.679Z,28.35
2023-05-10T17:19:28.151Z,28.35
2023-05-10T17:21:57.994Z,28.38
2023-05-10T17:24:29.180Z,28.56
2023-05-10T17:27:00.432Z,28.51
2023-05-10T17:29:31.801Z,28.51
2023-05-10T17:32:01.064Z,28.65
2023-05-10T17:34:30.979Z,28.67
2023-05-10T17:37:00.378Z,28.61
2023-05-10T17:39:30.054Z,28.63
2023-05-10T17:41:59.912Z,28.90
2023-05-10T17:44:28.858Z,29.14
2023-05-10T17:46:58.533Z,29.31
2023-05-10T17:49:28.537Z,29.23
2023-05-10T17:51:58.062Z,29.41
2023-05-10T17:54:27.395Z,29.72
2023-05-10T17:56:58.059Z,30.01
2023-05-10T17:59:28.269Z,30.22
2023-05-10T18:01:57.074Z,30.30
2023-05-10T18:04:26.544Z,30.62
2023-05-10T18:06:57.909Z,30.86
2023-05-10T18:09:28.069Z,31.03
2023-05-10T18:11:57.894Z,31.42
2023-05-10T18:14:39.622Z,31.66
2023-05-10T18:17:01.919Z,31.98
2023-05-10T18:19:31.605Z,32.30
2023-05-10T18:22:01.004Z,32.68
2023-05-10T18:24:38.908Z,33.03
2023-05-10T18:27:01.036Z,33.41
2023-05-10T18:29:31.058Z,33.66
2023-05-10T18:32:00.382Z,34.12
2023-05-10T18:34:29.869Z,34.39
2023-05-10T18:36:59.185Z,34.67
2023-05-10T18:39:32.557Z,35.03
2023-05-10T18:42:02.363Z,35.39
2023-05-10T18:44:32.286Z,35.65
2023-05-10T18:47:01.699Z,36.01
2023-05-10T18:49:31.129Z,36.25
2023-05-10T18:52:00.274Z,36.55
2023-05-10T18:54:29.915Z,36.95
2023-05-10T18:56:58.992Z,37.22
2023-05-10T18:59:28.131Z,37.71
2023-05-10T19:01:57.688Z,37.99
2023-05-10T19:04:27.235Z,38.23
2023-05-10T19:06:56.835Z,38.45
2023-05-10T19:09:27.722Z,38.65
2023-05-10T19:11:57.207Z,38.92
2023-05-10T19:14:27.658Z,39.13
2023-05-10T19:16:57.476Z,39.21
2023-05-10T19:19:27.459Z,39.55
2023-05-10T19:21:56.832Z,39.68
2023-05-10T19:24:26.613Z,39.85
2023-05-10T19:26:57.535Z,40.03
2023-05-10T19:29:26.313Z,39.97
2023-05-10T19:31:57.049Z,39.96
2023-05-10T19:34:30.167Z,40.10
2023-05-10T19:36:59.264Z,40.23
2023-05-10T19:39:29.337Z,40.36
2023-05-10T19:41:59.589Z,40.59
2023-05-10T19:44:29.286Z,40.86
2023-05-10T19:46:59.024Z,41.01
2023-05-10T19:49:28.180Z,41.22
2023-05-10T19:51:57.782Z,41.37
2023-05-10T19:54:27.710Z,41.55
2023-05-10T19:56:56.809Z,41.50
2023-05-10T19:59:27.614Z,41.68
2023-05-10T20:01:56.864Z,41.84
2023-05-10T20:04:28.211Z,41.93
2023-05-10T20:06:57.483Z,42.18
2023-05-10T20:09:26.065Z,42.32
2023-05-10T20:11:56.717Z,42.39
2023-05-10T20:14:25.654Z,42.47
2023-05-10T20:16:54.545Z,42.59
2023-05-10T20:19:25.347Z,42.78
2023-05-10T20:21:56.183Z,42.81
2023-05-10T20:24:25.056Z,42.80
2023-05-10T20:26:54.351Z,42.95
2023-05-10T20:29:23.642Z,42.98
2023-05-10T20:31:52.777Z,42.91
2023-05-10T20:34:22.282Z,42.93
2023-05-10T20:36:51.366Z,43.19
2023-05-10T20:39:20.284Z,43.39
2023-05-10T20:41:49.908Z,43.60
2023-05-10T20:44:19.144Z,43.78
2023-05-10T20:46:50.283Z,43.78
2023-05-10T20:49:19.672Z,43.87
2023-05-10T20:51:49.404Z,43.79
2023-05-10T20:54:18.910Z,43.72
2023-05-10T20:56:48.317Z,43.73
2023-05-10T20:59:18.716Z,43.79
2023-05-10T21:01:48.029Z,43.77
2023-05-10T21:04:17.293Z,43.90
2023-05-10T21:06:46.715Z,44.03
2023-05-10T21:09:16.863Z,44.16
2023-05-10T21:11:45.661Z,44.31
2023-05-10T21:14:14.431Z,44.46
2023-05-10T21:16:44.776Z,44.58
2023-05-10T21:19:14.065Z,44.83
2023-05-10T21:21:43.428Z,44.97
2023-05-10T21:24:12.122Z,45.08
2023-05-10T21:26:41.760Z,45.11
2023-05-10T21:29:10.788Z,45.13
2023-05-10T21:31:39.846Z,45.19
2023-05-10T21:34:09.275Z,45.22
2023-05-10T21:36:38.977Z,45.33
2023-05-10T21:39:07.823Z,45.33
2023-05-10T21:41:36.811Z,45.51
2023-05-10T21:44:06.065Z,45.63
2023-05-10T21:46:35.919Z,45.67
2023-05-10T21:49:04.881Z,45.85
2023-05-10T21:51:34.608Z,46.19
2023-05-10T21:54:04.693Z,46.35
2023-05-10T21:56:33.713Z,46.46
2023-05-10T21:59:03.444Z,46.48
2023-05-10T22:01:32.253Z,46.63
2023-05-10T22:06:48.853Z,47.01
2023-05-10T22:09:18.766Z,47.17
2023-05-10T22:11:48.870Z,47.26
2023-05-10T22:14:18.087Z,47.22
2023-05-10T22:16:47.491Z,47.32
2023-05-10T22:19:16.368Z,47.30
2023-05-10T22:21:45.599Z,47.36
2023-05-10T22:24:14.920Z,47.45
2023-05-10T22:26:43.900Z,47.68
2023-05-10T22:29:13.365Z,47.93
2023-05-10T22:31:42.733Z,48.11
2023-05-10T22:34:11.889Z,48.22
2023-05-10T22:36:41.285Z,48.27
2023-05-10T22:39:10.300Z,48.45
2023-05-10T22:41:40.171Z,48.47
2023-05-10T22:44:08.878Z,48.48
2023-05-10T22:46:38.344Z,48.61
2023-05-10T22:49:07.420Z,48.82
2023-05-10T22:51:37.300Z,48.90
2023-05-10T22:54:07.062Z,49.08
2023-05-10T22:56:37.737Z,49.17
2023-05-10T22:59:06.934Z,49.25
2023-05-10T23:01:36.289Z,49.32
2023-05-10T23:04:05.405Z,49.38
2023-05-10T23:06:34.759Z,49.44
2023-05-10T23:09:03.925Z,49.35
2023-05-10T23:11:32.737Z,49.55
2023-05-10T23:14:02.288Z,49.74
2023-05-10T23:16:31.436Z,49.79
2023-05-10T23:19:00.741Z,49.83
2023-05-10T23:21:31.963Z,49.79
2023-05-10T23:24:01.344Z,49.87
2023-05-10T23:26:33.050Z,49.89
2023-05-10T23:29:03.477Z,49.93
2023-05-10T23:31:32.922Z,49.90
2023-05-10T23:34:03.264Z,49.91
2023-05-10T23:36:33.424Z,50.09
2023-05-10T23:39:04.691Z,50.17
2023-05-10T23:41:34.000Z,50.20
2023-05-10T23:44:03.668Z,50.20
2023-05-10T23:46:32.821Z,50.10
2023-05-10T23:49:02.746Z,50.11
2023-05-10T23:51:33.015Z,50.25
2023-05-10T23:54:02.755Z,50.45
2023-05-10T23:56:31.922Z,50.49
2023-05-10T23:59:00.644Z,50.69
